Etusivu
METAR-TAF:

METAR-TAF

Lentoasemat :

Newnan-Coweta County Airport

Newnan, Georgia, Yhdysvallat

Leveyspiiri: 33-18-44N, Pituuspiiri: 084-46-13W, korkeus merenpinnasta: 296 m

Tämänhetkinen sää

Tämä raportti tehtiin 16 minuuttia sitten, kello 07.55 UTC
tyyntä
Lämpötila 7°C
Kosteus 87%
Ilmanpaine 1024 hPa
Näkyvyys: 16.1 km
selkeää

METAR: KCCO 210755Z AUTO 00000KT 10SM CLR 07/05 A3025 RMK AO2 T00650045

Aika: 03:11 (08:11 UTC)


TAF: puuttuu

Säähavainnot ja -ennusteet yli 4000 lentoasemalta (METAR- ja TAF-raportit).

Käytössä olevat sääasemat on merkitty karttaan keltaisilla ja punaisilla pisteillä.

Aseta hiiri pisteen päälle nähdäksesi sääaseman nimen.

Klikkaa sitten nähdäksesi säähavainnot ja -ennusteet.

Kartan vaihtaminen: klikkaa mustalla rastilla varustettuja vihreitä pisteitä, niin voit zoomata sisään; viivalla varustettua vihreää pistettä, niin voit zoomata ulos tai vihreitä nuolia, niin pääset viereisille kartoille.


METAR-TAF: